Time;durP1;ratioP1;P1;durP2;ratioP2;P2;SDS_P1;SDS_P2;PMS_P1;PMS_P2;Temp;Humidity;BMP_temperature;BMP_pressure;BME280_temperature;BME280_humidity;BME280_pressure;Samples;Min_cycle;Max_cycle;Signal;HPM_P1;HPM_P2
2023/10/06 00:02:58;;;;;;;11.73;2.38;;;13.80;99.90;;;;;;5045219;28;20402;-69
2023/10/06 00:05:24;;;;;;;9.00;2.38;;;13.80;99.90;;;;;;5065162;28;20053;-69
2023/10/06 00:07:51;;;;;;;6.25;2.28;;;13.80;99.90;;;;;;5056350;28;20046;-69
2023/10/06 00:10:20;;;;;;;4.65;1.92;;;13.70;99.90;;;;;;5052969;28;20541;-70
2023/10/06 00:12:54;;;;;;;11.43;2.40;;;13.70;99.90;;;;;;5062220;28;20127;-69
2023/10/06 00:15:26;;;;;;;8.82;2.75;;;13.70;99.90;;;;;;5065285;28;20049;-70
2023/10/06 00:17:59;;;;;;;5.65;2.42;;;13.70;99.90;;;;;;5045627;28;20757;-70
2023/10/06 00:21:14;;;;;;;5.95;1.75;;;13.70;99.90;;;;;;5054299;28;20525;-70
2023/10/06 00:23:14;;;;;;;6.10;1.88;;;13.70;99.90;;;;;;5025205;28;20100;-70
2023/10/06 00:25:43;;;;;;;10.03;2.20;;;13.70;99.90;;;;;;5065882;28;20052;-70
2023/10/06 00:28:25;;;;;;;7.97;2.33;;;13.70;99.90;;;;;;5050376;28;20745;-69
2023/10/06 00:31:05;;;;;;;9.95;2.42;;;13.70;99.90;;;;;;5063161;28;20052;-75
2023/10/06 00:33:37;;;;;;;6.57;1.92;;;13.60;99.90;;;;;;5064655;28;20235;-69
2023/10/06 00:36:11;;;;;;;5.55;1.90;;;13.70;99.90;;;;;;5036367;28;20092;-69
2023/10/06 00:38:38;;;;;;;5.15;2.15;;;13.60;99.90;;;;;;5064154;28;20037;-70
2023/10/06 00:41:07;;;;;;;3.33;1.92;;;13.70;99.90;;;;;;5062935;28;20040;-70
2023/10/06 00:43:39;;;;;;;8.32;2.30;;;13.60;99.90;;;;;;5056217;28;20672;-70
2023/10/06 00:46:08;;;;;;;6.38;2.08;;;13.60;99.90;;;;;;5064987;28;20106;-70
2023/10/06 00:48:39;;;;;;;9.23;2.55;;;13.70;99.90;;;;;;5065176;28;20087;-70
2023/10/06 00:51:12;;;;;;;4.93;1.95;;;13.60;99.90;;;;;;5064516;28;20059;-70
2023/10/06 00:53:40;;;;;;;6.68;1.77;;;13.70;99.90;;;;;;5063822;28;20056;-70
2023/10/06 00:56:15;;;;;;;5.63;1.75;;;13.60;99.90;;;;;;5087135;28;20050;-70
2023/10/06 00:58:41;;;;;;;6.10;1.83;;;13.60;99.90;;;;;;5047624;28;20051;-71
2023/10/06 01:01:16;;;;;;;4.93;2.15;;;13.60;99.90;;;;;;5045571;28;20068;-70
2023/10/06 01:04:08;;;;;;;5.35;2.10;;;13.60;99.90;;;;;;5061008;28;20045;-69
2023/10/06 01:06:35;;;;;;;10.23;2.30;;;13.60;99.90;;;;;;5063504;28;20083;-71
2023/10/06 01:09:17;;;;;;;8.98;2.28;;;13.60;99.90;;;;;;5046362;28;20036;-70
2023/10/06 01:11:50;;;;;;;7.85;2.70;;;13.60;99.90;;;;;;5079086;28;20059;-70
2023/10/06 01:14:26;;;;;;;6.10;2.20;;;13.60;99.90;;;;;;5064474;28;20596;-70
2023/10/06 01:17:02;;;;;;;8.75;2.28;;;13.60;99.90;;;;;;5064607;28;20402;-70
2023/10/06 01:19:28;;;;;;;4.60;1.95;;;13.60;99.90;;;;;;5057610;28;20051;-70
2023/10/06 01:21:55;;;;;;;13.02;2.50;;;13.70;99.90;;;;;;5062546;28;20048;-70
2023/10/06 01:24:26;;;;;;;6.80;2.33;;;13.60;99.90;;;;;;5050039;28;20041;-69
2023/10/06 01:27:11;;;;;;;7.35;2.22;;;13.60;99.90;;;;;;5068915;28;20036;-70
2023/10/06 01:29:38;;;;;;;8.52;2.22;;;13.60;99.90;;;;;;5047821;28;20051;-70
2023/10/06 01:32:05;;;;;;;6.20;2.10;;;13.60;99.90;;;;;;5066881;28;20093;-70
2023/10/06 01:34:44;;;;;;;4.70;2.45;;;13.60;99.90;;;;;;5037747;28;20045;-84
2023/10/06 01:37:10;;;;;;;11.05;1.90;;;13.60;99.90;;;;;;5066606;28;20063;-70
2023/10/06 01:39:36;;;;;;;12.52;2.60;;;13.60;99.90;;;;;;5067940;28;20075;-70
2023/10/06 01:42:17;;;;;;;7.65;2.47;;;13.60;99.90;;;;;;5067191;28;20084;-70
2023/10/06 01:44:45;;;;;;;8.05;2.40;;;13.70;99.90;;;;;;5067975;28;20052;-70
2023/10/06 01:47:11;;;;;;;7.25;3.05;;;13.70;99.90;;;;;;5068028;28;20040;-70
2023/10/06 01:49:37;;;;;;;4.38;1.70;;;13.70;99.90;;;;;;5065246;28;20049;-70
2023/10/06 01:52:04;;;;;;;10.90;2.53;;;13.70;99.90;;;;;;5068059;28;20105;-70
2023/10/06 01:54:34;;;;;;;6.03;2.60;;;13.70;99.90;;;;;;5066479;28;20044;-70
2023/10/06 01:57:06;;;;;;;7.10;2.40;;;13.70;99.90;;;;;;5068386;28;20075;-75
2023/10/06 01:59:33;;;;;;;6.75;2.60;;;13.70;99.90;;;;;;5051071;28;20052;-79
2023/10/06 02:02:01;;;;;;;11.82;3.10;;;13.70;99.90;;;;;;5025164;28;20421;-70
2023/10/06 02:04:33;;;;;;;7.07;2.78;;;13.70;99.90;;;;;;5068055;28;20129;-86
2023/10/06 02:06:59;;;;;;;11.35;2.75;;;13.80;99.90;;;;;;5064166;28;20471;-70
2023/10/06 02:09:25;;;;;;;10.65;3.40;;;13.70;99.90;;;;;;5068239;28;20056;-69
2023/10/06 02:11:53;;;;;;;6.38;2.92;;;13.70;99.90;;;;;;5088705;28;20083;-70
2023/10/06 02:14:19;;;;;;;11.55;3.25;;;13.70;99.90;;;;;;5067417;28;20052;-70
2023/10/06 02:16:46;;;;;;;11.18;2.97;;;13.70;99.90;;;;;;5067261;28;20048;-70
2023/10/06 02:19:16;;;;;;;12.63;3.63;;;13.70;99.90;;;;;;5066523;28;20048;-70
2023/10/06 02:21:46;;;;;;;6.72;3.30;;;13.80;99.90;;;;;;5060247;28;20059;-70
2023/10/06 02:24:12;;;;;;;6.68;2.97;;;13.80;99.90;;;;;;5094592;28;20102;-70
2023/10/06 02:26:38;;;;;;;10.93;3.92;;;13.80;99.90;;;;;;5067526;28;20099;-70
2023/10/06 02:29:19;;;;;;;7.32;2.95;;;13.80;99.90;;;;;;5066138;28;20044;-69
2023/10/06 02:31:45;;;;;;;7.68;3.67;;;13.80;99.90;;;;;;5062881;28;20548;-70
2023/10/06 02:34:17;;;;;;;11.82;3.75;;;13.80;99.90;;;;;;5037822;28;20106;-70
2023/10/06 02:36:43;;;;;;;5.53;3.47;;;13.80;99.90;;;;;;5054437;28;20394;-69
2023/10/06 02:39:10;;;;;;;12.43;4.20;;;13.90;99.90;;;;;;5047020;28;20045;-70
2023/10/06 02:41:36;;;;;;;6.82;3.60;;;13.80;99.90;;;;;;5046126;28;20076;-74
2023/10/06 02:44:08;;;;;;;11.60;4.35;;;13.80;99.90;;;;;;5048168;28;20123;-69
2023/10/06 02:46:36;;;;;;;5.65;3.40;;;13.90;99.90;;;;;;5045322;28;20052;-70
2023/10/06 02:49:07;;;;;;;13.73;3.53;;;13.80;99.90;;;;;;5056686;28;20529;-70
2023/10/06 02:51:33;;;;;;;13.50;3.53;;;13.80;99.90;;;;;;5045900;28;20053;-69
2023/10/06 02:54:13;;;;;;;13.35;3.20;;;13.90;99.90;;;;;;5047496;28;20105;-71
2023/10/06 02:56:40;;;;;;;11.27;3.83;;;13.90;99.90;;;;;;5047281;28;20288;-69
2023/10/06 02:59:20;;;;;;;9.40;3.40;;;13.80;99.90;;;;;;5079034;28;20041;-69
2023/10/06 03:02:00;;;;;;;7.63;2.90;;;13.90;99.90;;;;;;5047776;28;20083;-70
2023/10/06 03:04:27;;;;;;;9.93;3.67;;;13.80;99.90;;;;;;5050372;28;20049;-70
2023/10/06 03:06:59;;;;;;;14.25;3.70;;;13.80;99.90;;;;;;5045941;28;20081;-69
2023/10/06 03:09:44;;;;;;;6.43;3.30;;;13.80;99.90;;;;;;5062364;28;20048;-70
2023/10/06 03:12:26;;;;;;;9.00;3.33;;;13.80;99.90;;;;;;5060216;28;20056;-70
2023/10/06 03:14:54;;;;;;;9.07;3.38;;;13.80;99.90;;;;;;5050752;28;20041;-75
2023/10/06 03:17:20;;;;;;;8.30;3.15;;;13.80;99.90;;;;;;5065387;28;20437;-70
2023/10/06 03:20:07;;;;;;;8.95;3.40;;;13.80;99.90;;;;;;5065997;28;20052;-71
2023/10/06 03:22:38;;;;;;;13.23;3.85;;;13.80;99.90;;;;;;5065899;28;20516;-70
2023/10/06 03:25:15;;;;;;;11.40;3.90;;;13.80;99.90;;;;;;5063153;28;20044;-70
2023/10/06 03:27:41;;;;;;;14.05;3.08;;;13.80;99.90;;;;;;5064424;28;20056;-71
2023/10/06 03:30:17;;;;;;;9.25;2.92;;;13.80;99.90;;;;;;5049264;28;20048;-70
2023/10/06 03:32:44;;;;;;;7.63;3.25;;;13.80;99.90;;;;;;5049705;28;20503;-71
2023/10/06 03:35:23;;;;;;;8.77;2.85;;;13.80;99.90;;;;;;5065775;28;20086;-70
2023/10/06 03:37:53;;;;;;;9.70;3.35;;;13.80;99.90;;;;;;5051231;28;20411;-70
2023/10/06 03:40:23;;;;;;;6.03;3.33;;;13.80;99.90;;;;;;5049625;28;20783;-70
2023/10/06 03:42:50;;;;;;;9.40;3.22;;;13.80;99.90;;;;;;5064632;28;20317;-72
2023/10/06 03:45:26;;;;;;;6.40;2.78;;;13.80;99.90;;;;;;5048823;28;20044;-82
2023/10/06 03:47:52;;;;;;;10.50;3.10;;;13.80;99.90;;;;;;5066327;28;20143;-70
2023/10/06 03:50:19;;;;;;;12.65;3.25;;;13.80;99.90;;;;;;5064780;28;20131;-70
2023/10/06 03:52:47;;;;;;;7.50;3.70;;;13.80;99.90;;;;;;5065898;28;20056;-80
2023/10/06 03:55:13;;;;;;;7.13;3.20;;;13.80;99.90;;;;;;5060676;28;20461;-76
2023/10/06 03:57:40;;;;;;;9.07;3.50;;;13.80;99.90;;;;;;5062784;28;20048;-70
2023/10/06 04:00:07;;;;;;;10.10;3.55;;;13.80;99.90;;;;;;5064782;28;20060;-70
2023/10/06 04:02:38;;;;;;;8.40;3.42;;;13.90;99.90;;;;;;5059474;28;20075;-70
2023/10/06 04:05:07;;;;;;;10.18;3.45;;;13.80;99.90;;;;;;5063719;28;20048;-83
2023/10/06 04:07:33;;;;;;;8.38;3.55;;;13.80;99.90;;;;;;5047811;28;20120;-87
2023/10/06 04:10:03;;;;;;;7.63;3.80;;;13.80;99.90;;;;;;5055996;28;20136;-70
2023/10/06 04:12:29;;;;;;;;;;;13.80;99.90;;;;;;5077177;28;20059;-70
2023/10/06 04:14:55;;;;;;;6.10;3.53;;;13.80;99.90;;;;;;5064078;28;19921;-83
2023/10/06 04:17:23;;;;;;;11.27;3.90;;;13.80;99.90;;;;;;5047641;28;20511;-84
2023/10/06 04:19:49;;;;;;;7.93;3.95;;;13.80;99.90;;;;;;5065972;28;20051;-82
2023/10/06 04:22:15;;;;;;;13.02;4.45;;;13.80;99.90;;;;;;5065405;28;20053;-70
2023/10/06 04:24:40;;;;;;;8.88;2.97;;;13.80;99.90;;;;;;5065834;28;20112;-70
2023/10/06 04:27:07;;;;;;;9.32;4.00;;;13.80;99.90;;;;;;5049159;28;20501;-85
2023/10/06 04:29:35;;;;;;;9.63;3.53;;;13.80;99.90;;;;;;5063386;28;20486;-70
2023/10/06 04:32:01;;;;;;;14.18;3.45;;;13.90;99.90;;;;;;5065143;28;20087;-70
2023/10/06 04:34:27;;;;;;;10.55;4.25;;;13.90;99.90;;;;;;5063573;28;20422;-71
2023/10/06 04:36:56;;;;;;;13.23;4.20;;;13.80;99.90;;;;;;5075006;28;20048;-70
2023/10/06 04:39:23;;;;;;;13.90;4.15;;;13.80;99.90;;;;;;5050463;28;20051;-73
2023/10/06 04:41:49;;;;;;;11.75;4.20;;;13.90;99.90;;;;;;5064695;28;20044;-70
2023/10/06 04:44:15;;;;;;;24.70;5.07;;;13.90;99.90;;;;;;5048772;28;20121;-70
2023/10/06 04:46:41;;;;;;;10.32;3.75;;;13.90;99.90;;;;;;5053977;28;20044;-70
2023/10/06 04:49:07;;;;;;;8.85;3.92;;;13.90;99.90;;;;;;5065815;28;20060;-70
2023/10/06 04:51:34;;;;;;;10.02;4.05;;;13.90;99.90;;;;;;5063774;28;20044;-70
2023/10/06 04:54:02;;;;;;;11.38;4.82;;;13.90;99.90;;;;;;5068652;28;20051;-71
2023/10/06 04:56:32;;;;;;;14.35;4.68;;;13.80;99.90;;;;;;5062301;28;20041;-71
2023/10/06 04:58:58;;;;;;;;;;;13.80;99.90;;;;;;5071933;28;20048;-70
2023/10/06 05:01:23;;;;;;;13.85;3.85;;;13.90;99.90;;;;;;5066070;28;19925;-70
2023/10/06 05:03:49;;;;;;;10.80;3.75;;;13.80;99.90;;;;;;5069786;28;20430;-70
2023/10/06 05:06:16;;;;;;;10.43;4.60;;;13.90;99.90;;;;;;5052695;28;20048;-70
2023/10/06 05:08:47;;;;;;;8.70;4.05;;;13.80;99.90;;;;;;5065082;28;20520;-70
2023/10/06 05:11:14;;;;;;;14.10;4.82;;;13.80;99.90;;;;;;5055096;28;20064;-70
2023/10/06 05:13:40;;;;;;;7.97;4.22;;;13.80;99.90;;;;;;5068790;28;20402;-73
2023/10/06 05:16:06;;;;;;;11.80;4.38;;;13.80;99.90;;;;;;5052602;28;20044;-70
2023/10/06 05:18:35;;;;;;;13.48;4.18;;;13.80;99.90;;;;;;5067159;28;20065;-69
2023/10/06 05:21:01;;;;;;;16.95;4.65;;;13.80;99.90;;;;;;5051842;28;20412;-70
2023/10/06 05:23:27;;;;;;;9.52;4.75;;;13.80;99.90;;;;;;5068870;28;20502;-70
2023/10/06 05:25:54;;;;;;;10.85;4.25;;;13.80;99.90;;;;;;5066660;28;20094;-70
2023/10/06 05:28:20;;;;;;;13.50;4.13;;;13.80;99.90;;;;;;5069427;28;20105;-70
2023/10/06 05:30:46;;;;;;;11.00;3.78;;;13.80;99.90;;;;;;5060604;28;20049;-70
2023/10/06 05:33:14;;;;;;;9.13;3.78;;;13.80;99.90;;;;;;5067512;28;20059;-70
2023/10/06 05:35:39;;;;;;;9.45;3.58;;;13.80;99.90;;;;;;5067359;28;20494;-70
2023/10/06 05:38:15;;;;;;;16.00;4.75;;;13.80;99.90;;;;;;5064140;28;20060;-70
2023/10/06 05:40:46;;;;;;;11.20;4.28;;;13.70;99.90;;;;;;5058931;28;20462;-76
2023/10/06 05:43:12;;;;;;;11.63;3.72;;;13.80;99.90;;;;;;5067364;28;20120;-70
2023/10/06 05:45:39;;;;;;;13.65;4.47;;;13.80;99.90;;;;;;5057191;28;20105;-70
2023/10/06 05:48:10;;;;;;;18.60;4.25;;;13.80;99.90;;;;;;5049441;28;20084;-77
2023/10/06 05:50:36;;;;;;;10.90;4.18;;;13.80;99.90;;;;;;5068404;28;20125;-73
2023/10/06 05:53:12;;;;;;;12.18;3.92;;;13.80;99.90;;;;;;5067521;28;20049;-69
2023/10/06 05:55:41;;;;;;;10.43;3.58;;;13.80;99.90;;;;;;5059465;28;20543;-70
2023/10/06 05:58:14;;;;;;;13.43;3.75;;;13.80;99.90;;;;;;5062316;28;20059;-69
2023/10/06 06:00:50;;;;;;;8.65;3.63;;;13.70;99.90;;;;;;5049539;28;20070;-70
2023/10/06 06:03:20;;;;;;;11.80;4.28;;;13.70;99.90;;;;;;5096334;28;20060;-70
2023/10/06 06:05:57;;;;;;;14.40;4.07;;;13.70;99.90;;;;;;5067239;28;20502;-69
2023/10/06 06:08:23;;;;;;;7.13;3.17;;;13.70;99.90;;;;;;5067490;28;20063;-69
2023/10/06 06:10:49;;;;;;;8.30;3.80;;;13.80;99.90;;;;;;5047342;28;20079;-69
2023/10/06 06:13:18;;;;;;;9.00;3.65;;;13.80;99.90;;;;;;5055328;28;20084;-70
2023/10/06 06:15:44;;;;;;;7.40;3.40;;;13.80;99.90;;;;;;5067797;28;20071;-69
2023/10/06 06:18:10;;;;;;;10.05;3.00;;;13.80;99.90;;;;;;5033198;28;20506;-77
2023/10/06 06:20:41;;;;;;;8.98;3.45;;;13.80;99.90;;;;;;5068776;28;20037;-70
2023/10/06 06:23:09;;;;;;;7.85;3.28;;;13.80;99.90;;;;;;5034329;28;20140;-70
2023/10/06 06:25:44;;;;;;;8.55;3.10;;;13.90;99.90;;;;;;5067534;28;20040;-70
2023/10/06 06:28:12;;;;;;;9.82;3.80;;;13.80;99.90;;;;;;5061451;28;20127;-69
2023/10/06 06:30:39;;;;;;;7.53;3.33;;;13.90;99.90;;;;;;5067124;28;20039;-72
2023/10/06 06:33:12;;;;;;;12.00;4.10;;;13.90;99.90;;;;;;5062161;28;20063;-77
2023/10/06 06:35:38;;;;;;;9.98;3.50;;;13.90;99.90;;;;;;5059144;28;20170;-82
2023/10/06 06:38:07;;;;;;;9.65;3.83;;;13.90;99.90;;;;;;5031058;28;20048;-69
2023/10/06 06:40:37;;;;;;;10.48;3.45;;;13.90;99.90;;;;;;5058138;28;20202;-69
2023/10/06 06:43:09;;;;;;;13.45;4.15;;;13.90;99.90;;;;;;5062659;28;20603;-70
2023/10/06 06:45:39;;;;;;;12.77;3.55;;;13.90;99.90;;;;;;5068309;28;20119;-69
2023/10/06 06:48:19;;;;;;;12.07;4.05;;;14.00;99.90;;;;;;5062462;28;20056;-69
2023/10/06 06:50:48;;;;;;;6.85;3.33;;;14.00;99.90;;;;;;5061406;28;20110;-69
2023/10/06 06:53:14;;;;;;;10.35;3.70;;;14.10;99.90;;;;;;5061211;28;20057;-82
2023/10/06 06:55:40;;;;;;;7.45;3.10;;;14.20;99.90;;;;;;5059526;28;20053;-69
2023/10/06 06:58:08;;;;;;;6.38;3.00;;;14.20;99.90;;;;;;5055582;28;20873;-69
2023/10/06 07:00:35;;;;;;;17.52;3.72;;;14.20;99.90;;;;;;5041034;28;20048;-69
2023/10/06 07:03:01;;;;;;;9.23;2.88;;;14.30;99.90;;;;;;5053015;28;20483;-69
2023/10/06 07:05:28;;;;;;;7.35;2.72;;;14.20;99.90;;;;;;5048412;28;20052;-69
2023/10/06 07:07:54;;;;;;;7.78;3.17;;;14.20;99.90;;;;;;5038088;28;20048;-69
2023/10/06 07:10:22;;;;;;;10.20;2.92;;;14.20;99.90;;;;;;5050591;28;20071;-69
2023/10/06 07:12:49;;;;;;;18.17;3.03;;;14.40;99.90;;;;;;5047294;28;20406;-69
2023/10/06 07:15:19;;;;;;;10.38;2.90;;;14.30;99.90;;;;;;5046742;28;20120;-82
2023/10/06 07:17:50;;;;;;;8.90;3.58;;;14.30;99.90;;;;;;5051712;28;20083;-69
2023/10/06 07:20:18;;;;;;;11.95;2.70;;;14.40;99.90;;;;;;5061541;28;20049;-86
2023/10/06 07:22:45;;;;;;;12.85;3.15;;;14.40;99.90;;;;;;5059580;28;20049;-69
2023/10/06 07:25:15;;;;;;;8.40;2.85;;;14.40;99.90;;;;;;5039831;28;20055;-69
2023/10/06 07:27:47;;;;;;;10.43;3.22;;;14.50;99.90;;;;;;5077908;28;20052;-70
2023/10/06 07:30:21;;;;;;;9.15;3.03;;;14.50;99.90;;;;;;5046041;28;20102;-69
2023/10/06 07:32:48;;;;;;;12.70;3.50;;;14.60;99.90;;;;;;5043923;28;20057;-69
2023/10/06 07:35:17;;;;;;;8.98;3.20;;;14.60;99.90;;;;;;5053572;28;20053;-70
2023/10/06 07:37:44;;;;;;;9.82;2.88;;;14.70;99.90;;;;;;5053817;28;20036;-71
2023/10/06 07:40:14;;;;;;;13.13;3.40;;;14.70;99.90;;;;;;5041953;28;20070;-70
2023/10/06 07:42:49;;;;;;;7.85;3.05;;;14.70;99.90;;;;;;5061736;28;20442;-85
2023/10/06 07:45:17;;;;;;;9.82;3.15;;;14.90;99.90;;;;;;5056683;28;20052;-70
2023/10/06 07:47:43;;;;;;;11.23;3.22;;;14.80;99.90;;;;;;5044260;28;20543;-70
2023/10/06 07:50:13;;;;;;;4.55;2.08;;;14.90;99.90;;;;;;5041725;28;20396;-70
2023/10/06 07:52:42;;;;;;;8.75;2.80;;;14.90;99.90;;;;;;5060322;28;20088;-70
2023/10/06 07:55:09;;;;;;;;;;;14.90;99.90;;;;;;5051531;28;20514;-70
2023/10/06 07:57:45;;;;;;;8.30;2.25;;;14.90;99.90;;;;;;5077595;28;19927;-70
2023/10/06 08:00:29;;;;;;;11.65;3.20;;;15.00;99.90;;;;;;5076179;28;20123;-71
2023/10/06 08:02:59;;;;;;;7.97;2.83;;;15.00;99.90;;;;;;5056609;28;20051;-70
2023/10/06 08:05:25;;;;;;;;;;;14.90;99.90;;;;;;5054566;28;20499;-70
2023/10/06 08:07:52;;;;;;;8.38;3.30;;;15.00;99.90;;;;;;5055842;28;19931;-70
2023/10/06 08:10:19;;;;;;;11.02;3.17;;;14.90;99.90;;;;;;5043844;28;20051;-70
2023/10/06 08:12:46;;;;;;;7.05;3.00;;;14.90;99.90;;;;;;5054788;28;20079;-70
2023/10/06 08:15:21;;;;;;;10.57;3.63;;;15.00;99.90;;;;;;5057035;28;20523;-70
2023/10/06 08:17:56;;;;;;;9.55;3.33;;;15.00;99.90;;;;;;5054189;28;20076;-70
2023/10/06 08:20:24;;;;;;;8.57;2.78;;;15.00;99.90;;;;;;5048357;28;20518;-69
2023/10/06 08:22:49;;;;;;;13.45;3.63;;;15.00;99.90;;;;;;5047436;28;20056;-70
2023/10/06 08:25:19;;;;;;;12.02;2.78;;;15.00;99.90;;;;;;5049198;28;20041;-71
2023/10/06 08:27:46;;;;;;;;;;;15.00;99.90;;;;;;5036214;28;20041;-70
2023/10/06 08:30:16;;;;;;;6.93;3.25;;;15.00;99.90;;;;;;5054719;28;20003;-68
2023/10/06 08:32:52;;;;;;;15.70;5.25;;;15.10;99.90;;;;;;5056324;28;20505;-69
2023/10/06 08:35:19;;;;;;;11.57;4.10;;;15.10;99.90;;;;;;5059542;28;20600;-70
2023/10/06 08:37:48;;;;;;;12.85;3.38;;;15.00;99.90;;;;;;5054533;28;20052;-69
2023/10/06 08:40:16;;;;;;;12.65;4.10;;;15.10;99.90;;;;;;5049388;28;20092;-70
2023/10/06 08:42:56;;;;;;;11.80;3.70;;;15.10;99.90;;;;;;5050021;28;20461;-70
2023/10/06 08:45:27;;;;;;;7.97;3.83;;;15.10;99.90;;;;;;5048269;28;20570;-69
2023/10/06 08:48:01;;;;;;;12.02;3.80;;;15.10;99.90;;;;;;5049098;28;20095;-70
2023/10/06 08:50:28;;;;;;;10.75;3.58;;;15.10;99.90;;;;;;5052532;28;20048;-69
2023/10/06 08:52:59;;;;;;;12.88;3.08;;;15.20;99.90;;;;;;5048193;28;20045;-70
2023/10/06 08:55:29;;;;;;;15.52;4.60;;;15.20;99.90;;;;;;5048881;28;20084;-70
2023/10/06 08:57:58;;;;;;;10.55;3.42;;;15.20;99.90;;;;;;5081227;28;20044;-69
2023/10/06 09:00:24;;;;;;;12.73;3.28;;;15.20;99.90;;;;;;5051825;28;20041;-70
2023/10/06 09:02:54;;;;;;;12.52;4.05;;;15.30;99.90;;;;;;5048061;28;20153;-70
2023/10/06 09:05:21;;;;;;;14.63;3.63;;;15.30;99.90;;;;;;5057234;28;20041;-69
2023/10/06 09:08:07;;;;;;;13.90;4.05;;;15.30;99.90;;;;;;5052740;28;20128;-83
2023/10/06 09:10:40;;;;;;;10.60;4.18;;;15.40;99.90;;;;;;5046857;28;20583;-69
2023/10/06 09:13:16;;;;;;;7.05;2.97;;;15.40;99.90;;;;;;5051482;28;20057;-70
2023/10/06 09:15:43;;;;;;;10.65;4.13;;;15.40;99.90;;;;;;5067530;28;20052;-69
2023/10/06 09:18:24;;;;;;;14.40;3.25;;;15.40;99.90;;;;;;5068541;28;20040;-69
2023/10/06 09:20:50;;;;;;;12.27;3.67;;;15.40;99.90;;;;;;5068167;28;20079;-69
2023/10/06 09:23:36;;;;;;;13.38;4.13;;;15.50;99.90;;;;;;5063966;28;20409;-69
2023/10/06 09:26:04;;;;;;;10.02;3.65;;;15.50;99.90;;;;;;5070013;28;20358;-69
2023/10/06 09:28:31;;;;;;;13.13;4.15;;;15.40;99.90;;;;;;5066872;28;20048;-69
2023/10/06 09:31:02;;;;;;;11.75;3.67;;;15.50;99.90;;;;;;5068899;28;20409;-69
2023/10/06 09:33:40;;;;;;;8.57;3.55;;;15.50;99.90;;;;;;5067143;28;20048;-69
2023/10/06 09:36:16;;;;;;;10.73;3.53;;;15.60;99.90;;;;;;5068098;28;20411;-69
2023/10/06 09:38:44;;;;;;;7.70;3.08;;;15.70;99.90;;;;;;5068113;28;20052;-70
2023/10/06 09:41:11;;;;;;;12.38;4.80;;;15.80;99.90;;;;;;5066722;28;20054;-69
2023/10/06 09:43:40;;;;;;;9.40;3.42;;;15.80;99.90;;;;;;5049712;28;20394;-70
2023/10/06 09:46:06;;;;;;;13.75;3.80;;;15.90;99.90;;;;;;5066625;28;20052;-70
2023/10/06 09:48:35;;;;;;;14.00;3.55;;;16.00;99.90;;;;;;5067938;28;20083;-69
2023/10/06 09:51:06;;;;;;;10.35;3.47;;;16.00;99.90;;;;;;5067429;28;20048;-70
2023/10/06 09:53:39;;;;;;;9.55;3.22;;;16.10;99.90;;;;;;5049597;28;20067;-70
2023/10/06 09:56:09;;;;;;;10.80;3.00;;;16.20;99.90;;;;;;5093221;28;20071;-70
2023/10/06 09:58:38;;;;;;;19.38;3.88;;;16.30;99.90;;;;;;5067731;28;20032;-70
2023/10/06 10:01:04;;;;;;;13.85;3.33;;;16.40;99.90;;;;;;5059529;28;20052;-69
2023/10/06 10:03:34;;;;;;;13.07;3.28;;;16.50;99.90;;;;;;5048901;28;20566;-70
2023/10/06 10:06:04;;;;;;;;;;;16.60;99.90;;;;;;5052326;28;20518;-70
2023/10/06 10:08:34;;;;;;;7.63;3.05;;;16.60;99.90;;;;;;5048572;28;20002;-79
2023/10/06 10:11:13;;;;;;;10.65;3.15;;;16.60;99.90;;;;;;5052454;28;20591;-70
2023/10/06 10:14:02;;;;;;;11.65;3.17;;;16.60;99.90;;;;;;5069886;28;20286;-72
2023/10/06 10:16:48;;;;;;;12.10;3.03;;;16.60;99.90;;;;;;5054015;28;20158;-70
2023/10/06 10:19:18;;;;;;;12.48;3.60;;;16.70;99.90;;;;;;5057907;28;20557;-70
2023/10/06 10:21:45;;;;;;;11.38;3.03;;;16.70;99.90;;;;;;5062563;28;20131;-70
2023/10/06 10:24:14;;;;;;;7.40;2.90;;;16.80;99.90;;;;;;5062172;28;20394;-69
2023/10/06 10:26:41;;;;;;;;;;;16.80;99.90;;;;;;5077319;28;20048;-69
2023/10/06 10:29:12;;;;;;;11.45;3.20;;;16.90;99.90;;;;;;5045860;28;19924;-69
2023/10/06 10:31:58;;;;;;;10.70;3.17;;;16.90;99.90;;;;;;5046084;28;20049;-70
2023/10/06 10:34:27;;;;;;;9.80;3.50;;;17.00;99.90;;;;;;5047335;28;20041;-69
2023/10/06 10:37:05;;;;;;;15.07;4.13;;;17.00;99.90;;;;;;5047190;28;20203;-70
2023/10/06 10:39:50;;;;;;;7.75;2.88;;;17.10;99.90;;;;;;5045206;28;20060;-78
2023/10/06 10:42:18;;;;;;;15.45;3.60;;;17.10;99.90;;;;;;5053054;28;20045;-69
2023/10/06 10:44:49;;;;;;;14.82;3.40;;;17.20;99.90;;;;;;5045008;28;20128;-75
2023/10/06 10:47:16;;;;;;;10.10;3.25;;;17.20;99.90;;;;;;5044602;28;20575;-69
2023/10/06 10:49:44;;;;;;;13.10;2.90;;;17.20;99.90;;;;;;5047295;28;20123;-69
2023/10/06 10:52:11;;;;;;;9.00;2.65;;;17.20;99.90;;;;;;5048764;28;20060;-69
2023/10/06 10:54:39;;;;;;;11.60;2.80;;;17.30;99.90;;;;;;5062635;28;20130;-70
2023/10/06 10:57:05;;;;;;;7.75;2.50;;;17.20;99.90;;;;;;5062401;28;20059;-70
2023/10/06 11:00:00;;;;;;;13.60;2.65;;;17.30;99.90;;;;;;5054344;28;20422;-70
2023/10/06 11:02:35;;;;;;;9.88;2.42;;;17.30;99.90;;;;;;5044814;28;20064;-70
2023/10/06 11:05:02;;;;;;;16.13;2.88;;;17.40;99.90;;;;;;5054473;28;20406;-69
2023/10/06 11:07:28;;;;;;;12.50;2.90;;;17.40;99.90;;;;;;5077586;28;20049;-69
2023/10/06 11:09:53;;;;;;;9.95;2.28;;;17.50;99.90;;;;;;5048625;28;20105;-69
2023/10/06 11:12:22;;;;;;;11.32;2.30;;;17.50;99.90;;;;;;5045744;28;20103;-69
2023/10/06 11:14:51;;;;;;;19.25;3.17;;;17.60;99.90;;;;;;5050827;28;20047;-69
2023/10/06 11:17:26;;;;;;;8.52;2.50;;;17.70;99.90;;;;;;5045576;28;20044;-69
2023/10/06 11:20:13;;;;;;;11.35;2.25;;;17.80;99.90;;;;;;5052468;28;20113;-68
2023/10/06 11:22:50;;;;;;;16.55;3.05;;;17.90;99.90;;;;;;5044289;28;20414;-68
2023/10/06 11:25:16;;;;;;;11.25;2.67;;;18.00;99.90;;;;;;5034480;28;20530;-68
2023/10/06 11:27:42;;;;;;;15.07;2.78;;;18.20;99.90;;;;;;5046752;28;20056;-68
2023/10/06 11:30:11;;;;;;;12.70;2.97;;;18.40;99.90;;;;;;5090909;28;20041;-68
2023/10/06 11:32:37;;;;;;;;;;;18.50;99.90;;;;;;5050629;28;20126;-68
2023/10/06 11:35:04;;;;;;;6.72;1.83;;;18.50;99.90;;;;;;5045649;28;19928;-68
2023/10/06 11:37:30;;;;;;;11.10;2.95;;;18.60;99.90;;;;;;5045144;28;20041;-68
2023/10/06 11:39:57;;;;;;;7.20;2.30;;;18.60;99.90;;;;;;5079783;28;20048;-68
2023/10/06 11:42:25;;;;;;;9.02;2.13;;;18.60;99.90;;;;;;5047039;28;20087;-80
2023/10/06 11:44:56;;;;;;;9.68;2.60;;;18.60;99.90;;;;;;5045922;28;20538;-68
2023/10/06 11:47:28;;;;;;;5.45;2.25;;;18.70;99.90;;;;;;5055077;28;20056;-69
2023/10/06 11:49:55;;;;;;;7.65;2.22;;;18.70;99.90;;;;;;5079614;28;20402;-69
2023/10/06 11:52:20;;;;;;;9.18;2.15;;;18.60;99.90;;;;;;5073124;28;20102;-68
2023/10/06 11:54:46;;;;;;;9.73;2.70;;;18.60;99.90;;;;;;5059131;28;20045;-69
2023/10/06 11:57:13;;;;;;;13.95;2.85;;;18.70;99.90;;;;;;5046648;28;20053;-69
2023/10/06 11:59:49;;;;;;;9.32;2.25;;;18.60;99.90;;;;;;5044042;28;20150;-74
2023/10/06 12:02:15;;;;;;;7.75;2.35;;;18.60;99.90;;;;;;5048460;28;20041;-69
2023/10/06 12:04:42;;;;;;;12.50;3.35;;;18.70;99.90;;;;;;5077889;28;20052;-69
2023/10/06 12:07:20;;;;;;;9.25;2.55;;;18.70;99.90;;;;;;5045874;28;20088;-82
2023/10/06 12:09:48;;;;;;;9.48;1.55;;;18.60;99.90;;;;;;5078346;28;20037;-69
2023/10/06 12:12:17;;;;;;;8.23;2.50;;;18.60;99.90;;;;;;5058364;28;20135;-69
2023/10/06 12:14:45;;;;;;;11.30;2.03;;;18.50;99.90;;;;;;5065858;28;20040;-69
2023/10/06 12:17:17;;;;;;;6.72;1.95;;;18.50;99.90;;;;;;5066128;28;20114;-68
2023/10/06 12:19:43;;;;;;;10.55;2.88;;;18.50;99.90;;;;;;5065768;28;20057;-68
2023/10/06 12:22:09;;;;;;;11.98;2.25;;;18.50;99.90;;;;;;5061813;28;20463;-69
2023/10/06 12:24:35;;;;;;;12.88;2.42;;;18.50;99.90;;;;;;5058969;28;20044;-68
2023/10/06 12:27:01;;;;;;;6.63;2.00;;;18.50;99.90;;;;;;5055326;28;20043;-68
2023/10/06 12:29:29;;;;;;;9.68;2.60;;;18.60;99.90;;;;;;5062387;28;20390;-68
2023/10/06 12:31:56;;;;;;;12.63;2.28;;;18.60;99.90;;;;;;5059580;28;20060;-67
2023/10/06 12:34:23;;;;;;;11.88;2.38;;;18.60;99.90;;;;;;5044801;28;20053;-68
2023/10/06 12:36:51;;;;;;;16.13;2.95;;;18.60;99.90;;;;;;5048814;28;20039;-68
2023/10/06 12:39:35;;;;;;;11.52;2.88;;;18.70;99.90;;;;;;5065670;28;20053;-71
2023/10/06 12:42:04;;;;;;;6.65;2.00;;;18.70;99.90;;;;;;5051482;28;20473;-73
2023/10/06 12:44:30;;;;;;;10.83;2.47;;;18.90;99.90;;;;;;5066060;28;20037;-68
2023/10/06 12:46:56;;;;;;;7.32;2.08;;;18.90;99.90;;;;;;5046236;28;20465;-73
2023/10/06 12:49:23;;;;;;;7.00;2.22;;;19.00;99.90;;;;;;5062596;28;20513;-68
2023/10/06 12:51:52;;;;;;;5.45;1.63;;;19.00;99.90;;;;;;5057971;28;20088;-80
2023/10/06 12:54:19;;;;;;;13.77;2.87;;;19.10;99.90;;;;;;5063478;28;20082;-68
2023/10/06 12:56:46;;;;;;;8.10;2.10;;;19.00;99.90;;;;;;5046222;28;20058;-76
2023/10/06 12:59:12;;;;;;;11.23;2.28;;;19.00;99.90;;;;;;5047004;28;20112;-72